Date,TemperatureHighF,TemperatureAvgF,TemperatureLowF,DewpointHighF,DewpointAvgF,DewpointLowF,HumidityHigh,HumidityAvg,HumidityLow,PressureMaxIn,PressureMinIn,WindSpeedMaxMPH,WindSpeedAvgMPH,GustSpeedMaxMPH,PrecipitationSumIn
2013-1-1,34.2,23.8,9.9,27.9,14.9,5.0,84,69,55,0.00,40.00,15,2,15,0.01
2013-1-2,30.2,22.9,17.2,18.7,15.3,12.0,82,72,61,0.00,40.00,14,3,14,0.00
2013-1-3,31.8,25.4,16.3,25.9,20.3,12.0,87,81,70,0.00,40.00,12,3,12,0.00
2013-1-4,36.0,31.2,26.4,27.3,24.3,21.2,82,75,69,0.00,40.00,22,8,23,0.00
2013-1-5,38.7,32.4,28.9,29.3,26.1,23.7,83,77,67,0.00,40.00,11,3,13,0.00
2013-1-6,37.6,36.2,32.9,33.8,32.5,28.8,90,86,74,0.00,40.00,14,4,19,0.01
2013-1-7,35.8,31.1,26.1,30.2,25.1,20.7,86,78,68,0.00,40.00,19,4,19,0.00
2013-1-8,40.6,34.3,26.2,32.9,29.3,25.0,97,82,72,0.00,40.00,19,3,21,0.00
2013-1-9,46.6,39.7,29.3,38.1,32.3,25.5,87,75,65,0.00,40.00,26,6,28,0.00
2013-1-10,43.9,37.6,32.2,32.0,29.7,27.3,86,73,58,0.00,40.00,9,1,11,0.00
2013-1-11,50.9,43.0,35.2,47.1,38.3,29.1,90,83,71,0.00,40.00,16,3,18,0.05
2013-1-12,61.2,53.0,48.0,53.2,48.5,44.4,92,85,73,0.00,40.00,16,4,17,0.00
2013-1-13,63.5,53.4,45.5,57.7,50.4,44.1,98,90,78,0.00,40.00,14,3,18,0.99
2013-1-14,45.5,33.6,27.1,44.2,28.2,21.7,95,81,70,0.00,40.00,16,3,16,0.99
2013-1-15,34.0,29.5,26.4,25.3,23.1,18.3,89,77,56,0.00,40.00,4,1,6,0.00
2013-1-16,40.5,33.3,28.0,31.8,27.2,23.9,89,78,65,0.00,40.00,16,3,16,0.00
2013-1-17,36.0,26.1,18.1,29.1,19.6,14.2,90,76,70,0.00,40.00,15,3,16,0.00
2013-1-18,35.8,23.3,12.7,24.6,15.2,6.8,91,72,51,0.00,40.00,19,3,19,0.00
2013-1-19,48.0,42.1,34.9,34.0,30.3,24.3,70,63,49,0.00,40.00,18,8,26,0.00
2013-1-20,47.8,30.2,19.9,37.4,20.3,10.4,88,67,53,0.00,40.00,18,8,29,0.04
2013-1-21,23.2,19.5,12.9,15.8,10.0,1.6,85,66,56,0.00,40.00,15,3,19,0.00
2013-1-22,15.3,10.9,7.5,2.3,-0.3,-3.1,68,60,48,0.00,40.00,17,7,18,0.00
2013-1-23,18.9,11.9,6.6,5.0,2.1,-1.1,84,65,47,0.00,40.00,11,2,12,0.00
2013-1-24,16.2,12.3,3.9,12.7,5.9,-1.7,92,75,59,0.00,40.00,13,2,13,0.00
2013-1-25,20.5,14.1,6.6,12.4,8.2,1.2,91,77,63,0.00,40.00,4,1,7,0.00
2013-1-26,30.4,19.3,7.0,21.2,14.1,4.1,94,81,53,0.00,40.00,8,0,8,0.00
2013-1-27,33.8,24.5,9.3,20.5,17.3,6.8,95,75,53,0.00,40.00,6,1,6,0.01
2013-1-28,39.2,30.3,25.3,37.9,27.2,18.0,97,88,72,0.00,40.00,7,1,7,0.00
2013-2-18,32.7,29.6,27.7,21.9,18.2,14.0,73,63,48,0.00,40.00,10,1,10,0.00
2013-2-19,42.4,34.3,25.2,37.6,28.0,18.3,92,78,62,0.00,40.00,27,7,27,0.45
2013-2-20,25.2,22.4,20.5,18.9,15.7,13.1,83,75,67,0.00,40.00,18,7,21,0.00
2013-2-21,25.9,21.7,16.5,19.2,14.3,9.3,81,73,65,0.00,40.00,14,3,14,0.00
2013-2-22,36.7,28.8,22.5,32.2,24.0,17.8,92,82,72,0.00,40.00,14,2,14,0.00
2013-2-23,38.8,34.6,27.5,33.3,29.5,23.9,87,82,70,0.00,40.00,12,3,12,0.01
2013-2-24,34.2,31.5,27.7,28.9,26.3,23.9,91,81,74,0.00,40.00,13,3,13,0.00
2013-2-25,36.9,33.4,29.7,29.5,27.9,25.7,90,80,67,0.00,40.00,6,0,6,0.00
2013-2-26,43.9,35.5,26.6,33.4,28.6,23.7,95,77,54,0.00,40.00,16,3,17,0.84
2013-2-27,36.1,34.1,32.5,34.9,32.8,31.5,97,95,93,0.00,40.00,15,1,15,0.48
2013-2-28,37.2,34.5,32.7,34.9,32.7,28.8,97,93,85,0.00,40.00,13,2,13,0.34
2013-3-1,33.1,29.5,25.5,29.1,24.5,20.3,86,81,73,0.00,40.00,13,4,13,0.00
2013-3-2,28.4,25.3,22.6,22.6,19.9,17.4,84,80,74,0.00,40.00,12,3,12,0.00
2013-3-3,27.1,24.6,22.3,23.4,19.7,16.9,91,81,74,0.00,40.00,11,3,11,0.00
2013-3-4,33.4,27.7,23.5,25.0,21.0,17.2,82,76,66,0.00,40.00,14,4,15,0.00
2013-3-5,32.2,27.9,21.7,25.7,22.7,18.7,89,81,69,0.00,40.00,13,2,15,0.00
2013-3-6,40.6,34.1,28.2,34.9,30.4,24.3,93,86,77,0.00,40.00,12,2,12,0.00
2013-3-7,39.9,34.7,28.9,34.5,31.7,27.5,96,89,71,0.00,40.00,6,1,6,0.00
2013-3-8,43.5,36.0,27.0,32.4,29.7,25.0,97,79,53,0.00,40.00,8,1,9,0.01
2013-3-9,45.3,35.0,25.3,37.2,31.0,23.9,96,86,63,0.00,40.00,7,1,7,0.00
2013-3-10,65.8,49.8,34.0,42.6,34.2,29.3,92,58,36,0.00,40.00,16,3,18,0.00
2013-3-11,64.8,54.0,46.6,44.8,35.9,31.5,90,51,35,0.00,40.00,15,4,15,0.10
2013-3-12,47.3,39.6,35.2,44.4,34.0,28.2,90,80,74,0.00,40.00,15,6,15,0.04
2013-3-13,39.2,32.2,24.1,33.1,26.1,13.1,92,78,62,0.00,40.00,19,6,20,0.03
2013-3-14,34.3,28.2,23.5,19.6,15.0,9.3,80,58,39,0.00,40.00,18,6,19,0.00
2013-3-15,41.4,33.5,26.2,32.9,26.0,18.9,85,74,56,0.00,40.00,15,5,16,0.00
2013-3-16,30.9,27.7,21.7,23.4,20.1,16.0,89,73,62,0.00,40.00,10,2,11,0.00
2013-3-17,30.6,26.7,20.7,23.0,17.8,10.6,87,70,46,0.00,40.00,12,2,12,0.00
2013-3-18,36.9,28.4,19.9,32.5,20.3,10.8,92,72,47,0.00,40.00,17,3,18,0.02
2013-3-19,37.8,32.9,25.9,35.2,27.2,19.9,92,80,57,0.00,40.00,21,7,21,0.03
2013-3-20,33.6,28.1,24.1,24.1,20.4,16.3,90,73,57,0.00,40.00,15,5,16,0.00
2013-3-21,32.0,26.9,20.1,27.5,20.6,16.0,91,77,59,0.00,40.00,13,4,14,0.00
2013-3-22,35.1,30.6,26.2,27.9,25.2,22.3,92,80,70,0.00,40.00,15,5,15,0.01
2013-3-23,42.1,34.2,27.9,28.9,26.1,23.9,87,73,51,0.00,40.00,11,4,16,0.00
2013-3-24,38.8,32.5,22.8,30.0,24.4,20.5,95,73,49,0.00,40.00,13,2,13,0.00
2013-3-25,42.1,36.8,33.1,34.3,29.2,25.0,89,74,56,0.00,40.00,14,2,15,0.00
2013-3-26,47.1,37.0,30.6,33.6,30.8,28.2,91,79,53,0.00,40.00,10,1,10,0.00
2013-4-21,45.5,39.4,32.5,31.1,24.1,19.4,63,54,46,0.00,40.00,6,1,7,0.00
2013-4-22,60.4,45.5,28.2,39.6,30.5,19.9,87,58,31,0.00,40.00,12,1,12,0.00
2013-4-23,58.8,51.2,44.2,43.3,36.8,28.8,82,58,40,0.00,40.00,11,2,11,0.00
2013-4-24,62.6,51.9,38.5,55.2,43.6,33.1,95,75,45,0.00,40.00,18,6,18,0.46
2013-4-25,54.7,43.2,32.2,40.5,35.2,28.6,96,76,40,0.00,40.00,21,3,21,0.06
2013-4-26,57.7,45.8,34.7,38.1,33.0,26.2,93,65,36,0.00,40.00,10,1,10,0.00
2013-4-27,66.6,52.9,37.9,45.0,36.6,27.5,82,55,34,0.00,40.00,7,1,7,0.00
2013-4-28,75.2,55.2,37.9,50.5,43.3,36.3,96,69,27,0.00,40.00,16,2,16,0.04
2013-4-29,60.3,55.9,51.4,55.6,50.2,46.9,92,81,72,0.00,40.00,10,1,10,0.01
2013-4-30,73.2,63.1,52.7,58.8,54.2,50.2,93,74,53,0.00,40.00,11,2,11,0.00
2013-5-1,74.1,62.7,48.6,57.4,50.5,42.1,86,65,41,0.00,40.00,10,2,11,0.00
2013-5-2,76.1,59.9,43.9,48.2,43.8,35.8,93,60,26,0.00,40.00,7,1,7,0.00
2013-5-3,77.4,63.0,45.5,54.0,46.2,40.8,91,57,30,0.00,40.00,9,1,9,0.00
2013-5-4,69.1,60.1,47.3,48.6,43.9,34.3,87,57,31,0.00,40.00,8,1,9,0.00
2013-5-5,73.2,59.0,43.5,50.9,45.3,39.4,96,64,31,0.00,40.00,7,1,8,0.00
2013-5-6,72.7,58.9,47.5,48.4,40.9,30.9,87,55,24,0.00,40.00,7,1,7,0.00
2013-5-7,74.5,59.2,45.3,57.2,48.9,42.8,95,71,48,0.00,40.00,9,1,9,0.00
2013-5-8,70.5,58.2,49.1,62.8,53.8,47.1,97,86,61,0.00,40.00,5,0,6,0.15
2013-5-9,77.2,62.7,53.1,63.1,55.3,48.0,97,79,37,0.00,40.00,7,1,8,0.00
2013-5-10,76.6,60.8,49.1,63.9,55.5,47.5,96,84,55,0.00,40.00,19,2,19,0.06
2013-5-11,61.2,52.7,47.5,58.5,47.9,43.5,96,84,71,0.00,40.00,19,3,20,0.04
2013-5-12,51.8,43.9,37.8,47.8,35.5,30.4,91,73,49,0.00,40.00,27,10,27,0.06
2013-5-13,52.3,43.2,34.9,35.6,31.1,26.2,85,64,40,0.00,40.00,22,6,22,0.00
2013-5-14,59.4,49.3,36.0,41.0,33.2,26.8,90,57,29,0.00,40.00,15,2,15,0.00
2013-5-15,81.7,63.1,50.0,61.9,47.8,40.8,77,59,40,0.00,40.00,23,5,26,0.00
2013-5-16,75.9,62.3,45.0,49.6,43.7,33.3,85,55,25,0.00,40.00,20,4,22,0.00
2013-5-17,66.0,53.1,36.5,47.5,42.5,34.5,96,69,43,0.00,40.00,10,1,10,0.00
2013-5-18,71.6,59.1,41.5,50.5,45.8,39.6,96,64,36,0.00,40.00,10,1,11,0.00
2013-5-19,78.3,63.3,50.4,61.7,53.2,42.4,88,71,55,0.00,40.00,10,1,13,0.00
2013-5-20,87.1,70.4,52.7,68.5,60.8,50.0,97,73,46,0.00,40.00,21,1,21,0.00
2013-5-21,89.1,72.2,56.5,72.0,62.6,54.5,97,75,39,0.00,40.00,27,4,27,0.24
2013-5-22,89.4,70.1,56.5,69.6,61.1,55.6,98,77,42,0.00,40.00,18,3,18,0.01
2013-5-23,77.2,63.2,43.0,63.3,56.1,40.3,93,78,55,0.00,40.00,19,6,19,0.11
2013-5-24,53.2,45.4,40.3,40.8,37.4,34.5,92,74,55,0.00,40.00,18,6,19,0.08
2013-5-25,59.9,51.2,43.2,39.6,37.3,34.5,81,60,40,0.00,40.00,16,5,16,0.08
2013-5-26,64.6,53.6,40.8,40.6,35.9,29.3,86,54,27,0.00,40.00,15,4,15,0.00
2013-5-27,68.7,49.9,35.4,46.4,37.7,32.7,94,67,31,0.00,40.00,10,1,10,0.00
2013-5-28,66.2,63.0,57.6,62.8,60.6,56.3,98,92,82,0.00,40.00,13,1,14,1.03
2013-5-29,81.7,71.6,60.4,70.2,64.9,58.6,98,80,63,0.00,40.00,21,4,21,0.97
2013-5-30,87.3,76.1,64.2,72.5,65.8,60.3,89,72,54,0.00,40.00,16,2,16,0.00
2013-5-31,88.3,78.1,67.8,70.0,65.9,62.4,90,68,47,0.00,40.00,17,4,20,0.13
2013-6-1,86.5,74.2,66.4,71.6,67.2,63.9,94,80,58,0.00,40.00,23,5,23,0.67
2013-6-2,75.9,67.8,54.3,67.3,62.3,48.4,96,83,69,0.00,40.00,23,6,23,0.86
2013-6-3,64.6,55.1,47.1,48.9,44.9,40.1,93,70,47,0.00,40.00,12,4,13,0.00
2013-6-4,70.7,57.9,47.1,51.8,45.2,38.1,94,65,36,0.00,40.00,11,2,17,0.00
2013-6-5,69.1,58.7,48.0,57.7,48.2,40.3,97,70,44,0.00,40.00,10,1,10,0.00
2013-6-6,58.8,55.3,51.3,57.9,51.6,42.3,97,89,56,0.00,40.00,12,1,12,0.77
2013-6-7,61.0,56.1,51.4,57.7,54.8,50.5,98,95,89,0.00,40.00,8,1,8,0.03
2013-6-8,67.6,60.7,56.1,59.5,56.8,54.5,98,88,72,0.00,40.00,11,2,11,0.02
2013-6-9,75.0,64.2,51.8,60.6,55.6,50.5,97,76,53,0.00,40.00,6,1,7,0.00
2013-6-10,70.2,65.4,61.3,68.7,62.3,56.8,97,90,81,0.00,40.00,8,0,9,1.03
2013-6-11,74.5,65.2,57.7,65.8,60.7,57.0,98,86,65,0.00,40.00,12,3,12,0.08
2013-6-12,74.8,67.1,54.0,62.8,59.2,53.1,98,77,56,0.00,40.00,8,1,8,0.00
2013-6-13,69.8,62.0,57.4,62.8,58.7,56.1,97,89,66,0.00,40.00,20,2,20,0.93
2013-6-14,74.7,63.4,51.8,62.4,57.5,50.9,98,82,58,0.00,40.00,11,2,11,0.01
2013-6-15,76.1,63.9,48.0,59.0,53.5,43.2,98,72,36,0.00,40.00,11,2,12,0.00
2013-6-16,79.3,69.2,64.2,68.7,62.2,56.8,94,79,62,0.00,40.00,15,3,15,0.14
2013-6-17,79.2,70.0,59.9,66.0,61.1,57.4,96,75,50,0.00,40.00,12,2,12,0.00
2013-6-18,72.0,63.3,53.6,58.5,54.0,48.4,94,74,45,0.00,40.00,11,1,11,0.00
2013-6-19,70.3,61.5,51.3,54.5,49.4,43.9,95,67,40,0.00,40.00,8,1,9,0.00
2013-6-20,78.1,63.3,45.0,57.6,51.2,43.9,97,68,39,0.00,40.00,7,0,7,0.00
2013-6-21,79.7,68.0,50.2,61.3,55.3,48.2,97,67,42,0.00,40.00,6,0,6,0.00
2013-6-22,87.1,76.2,60.8,70.7,64.4,53.8,93,68,54,0.00,40.00,16,3,17,0.17
2013-6-23,90.0,79.4,68.5,74.3,68.8,64.2,96,73,45,0.00,40.00,17,3,17,0.02
2013-6-24,89.1,80.1,72.0,73.6,68.7,64.8,85,69,50,0.00,40.00,16,3,16,0.00
2013-6-25,83.8,76.4,71.2,73.0,68.5,65.1,91,77,65,0.00,40.00,14,3,15,0.03
2013-6-26,86.2,76.1,67.8,72.5,67.7,64.0,94,77,58,0.00,40.00,12,2,12,0.00
2013-6-27,77.9,70.9,64.8,71.2,66.6,62.4,96,87,69,0.00,40.00,5,0,5,0.63
2013-6-28,70.5,67.0,63.0,68.2,65.6,61.9,98,95,89,0.00,40.00,6,0,6,0.91
2013-6-29,80.8,68.1,61.7,67.1,63.4,60.1,97,86,57,0.00,40.00,10,1,10,0.09
2013-6-30,77.7,68.7,61.0,68.2,63.2,59.9,98,84,58,0.00,40.00,9,1,9,0.00
2013-7-1,72.0,66.3,61.2,63.7,61.0,57.7,97,84,69,0.00,40.00,11,1,11,0.00
2013-7-2,74.5,66.1,60.3,66.9,61.4,57.0,95,85,75,0.00,40.00,10,1,10,0.00
2013-7-3,81.9,71.1,60.6,74.1,67.3,59.7,98,88,73,0.00,40.00,6,1,7,0.07
2013-7-4,83.5,75.5,68.7,74.7,70.6,67.8,97,86,66,0.00,40.00,13,2,13,0.11
2013-7-5,84.0,76.1,70.5,74.7,70.4,67.6,97,83,64,0.00,40.00,15,2,15,0.09
2013-7-6,87.1,76.7,66.7,73.4,69.4,65.3,96,80,55,0.00,40.00,8,1,9,0.00
2013-7-7,81.9,75.3,70.0,72.9,70.1,67.1,97,84,66,0.00,40.00,17,3,17,0.17
2013-7-8,87.3,76.1,69.1,75.2,70.2,67.6,96,83,63,0.00,40.00,8,2,17,0.01
2013-7-9,82.8,75.0,70.3,74.1,71.0,68.9,96,88,74,0.00,40.00,9,1,9,0.03
2013-7-10,88.2,76.9,69.8,76.8,71.3,59.7,96,83,65,0.00,40.00,20,4,20,0.13
2013-7-11,79.7,70.2,59.4,66.2,60.3,56.3,92,72,53,0.00,40.00,9,2,10,0.00
2013-7-12,77.4,69.3,60.4,69.1,64.5,59.0,97,85,69,0.00,40.00,7,1,9,0.00
2013-7-13,81.3,71.6,58.3,71.1,65.5,57.4,98,82,63,0.00,40.00,9,1,9,0.00
2013-7-14,88.0,76.7,64.8,75.2,70.5,63.9,98,83,62,0.00,40.00,7,1,7,0.00
2013-7-15,91.9,80.3,69.6,75.7,70.5,61.7,97,75,39,0.00,40.00,7,1,7,0.00
2013-7-16,92.8,81.6,68.5,76.1,71.0,66.7,97,73,45,0.00,40.00,6,0,7,0.00
2013-7-17,94.5,84.9,74.5,79.9,75.8,72.3,94,75,57,0.00,40.00,12,2,13,0.00
2013-7-18,93.9,84.2,74.7,79.3,75.0,71.6,93,75,52,0.00,40.00,9,1,9,0.00
2013-7-19,92.3,82.8,69.1,79.5,73.9,66.2,92,76,55,0.00,40.00,28,6,28,1.22
2013-7-20,84.0,75.3,68.4,70.5,66.3,59.4,95,76,45,0.00,40.00,20,2,20,1.21
2013-7-21,77.7,70.5,62.8,66.7,62.5,57.6,94,76,58,0.00,40.00,9,1,9,0.00
2013-7-22,81.1,70.5,60.1,68.5,63.7,58.3,96,80,59,0.00,40.00,7,0,7,0.00
2013-7-23,84.2,72.5,62.8,71.8,66.5,55.8,97,82,60,0.00,40.00,14,2,14,0.02
2013-7-24,72.5,63.3,54.7,57.7,52.7,48.4,95,70,47,0.00,40.00,13,2,15,0.00
2013-7-25,76.8,64.6,51.4,61.2,55.8,50.2,97,76,45,0.00,40.00,10,1,10,0.00
2013-7-26,77.7,65.9,49.8,63.3,56.9,48.2,97,75,53,0.00,40.00,9,1,10,0.00
2013-7-27,77.5,69.6,61.0,66.6,63.2,53.4,94,81,65,0.00,40.00,12,1,12,0.37
2013-7-28,74.7,67.6,59.5,66.4,57.9,52.0,93,73,49,0.00,40.00,13,3,15,0.00
2013-7-29,73.0,64.5,57.0,64.6,57.9,52.0,93,80,57,0.00,40.00,10,2,11,0.48
2013-7-30,77.4,66.7,56.3,63.3,59.2,54.5,95,78,56,0.00,40.00,8,1,8,0.00
2013-7-31,77.5,68.5,57.7,69.1,62.7,56.5,97,83,62,0.00,40.00,6,0,7,0.00
2013-8-1,78.1,69.8,61.3,67.8,64.4,59.5,96,84,56,0.00,40.00,11,2,11,0.52
2013-8-2,78.4,67.8,55.6,66.9,60.9,54.3,97,80,55,0.00,40.00,16,2,17,0.21
2013-8-3,76.8,68.1,58.3,63.3,59.5,54.3,97,76,49,0.00,40.00,13,3,13,0.01
2013-8-4,73.6,65.7,57.9,60.8,55.6,47.5,91,71,47,0.00,40.00,10,2,11,0.00
2013-8-5,75.4,63.3,49.6,59.4,53.2,48.0,97,73,46,0.00,40.00,8,1,8,0.00
2013-8-6,82.4,69.3,54.3,65.3,59.1,52.0,96,73,42,0.00,40.00,7,1,8,0.00
2013-8-7,84.4,74.6,63.9,71.8,66.3,61.5,93,76,63,0.00,40.00,12,2,13,0.00
2013-8-8,81.3,73.4,66.9,73.2,69.1,65.5,96,87,69,0.00,40.00,8,0,9,0.25
2013-8-9,81.0,70.5,61.9,67.1,63.1,57.9,95,78,52,0.00,40.00,9,1,9,0.68
2013-8-10,76.5,66.2,56.3,61.7,55.9,50.4,93,71,48,0.00,40.00,9,2,10,0.00
2013-8-11,79.0,65.5,51.1,60.8,55.9,50.0,97,74,46,0.00,40.00,7,0,9,0.00
2013-8-12,77.4,68.9,57.0,67.1,62.3,55.0,96,81,59,0.00,40.00,11,1,11,0.00
2013-8-13,70.5,65.4,57.6,66.0,58.5,47.7,96,79,58,0.00,40.00,16,4,16,0.25
2013-8-14,71.1,62.3,54.3,56.1,52.4,48.4,88,71,46,0.00,40.00,14,3,14,0.00
2013-8-15,74.8,62.2,49.3,58.8,53.2,47.3,95,74,51,0.00,40.00,11,2,14,0.00
2013-8-16,80.1,64.7,49.8,62.4,55.6,48.4,96,75,43,0.00,40.00,8,1,8,0.00
2013-8-17,78.6,67.2,52.9,68.4,60.4,51.3,97,81,56,0.00,40.00,7,0,7,0.00
2013-8-18,81.1,68.0,54.0,67.6,61.2,52.5,97,80,57,0.00,40.00,6,0,6,0.00
2013-8-19,83.8,69.6,56.1,64.8,60.7,54.7,97,76,45,0.00,40.00,9,1,9,0.00
2013-8-20,85.5,72.3,58.8,69.6,63.9,56.5,97,77,52,0.00,40.00,18,1,24,0.00
2013-8-21,87.3,75.2,64.0,70.9,65.6,61.3,95,74,49,0.00,40.00,12,1,12,0.00
2013-8-22,84.4,75.9,67.3,73.9,67.5,57.9,92,76,54,0.00,40.00,13,2,13,0.00
2013-8-23,62.8,56.2,52.9,56.1,53.5,51.3,95,91,79,0.00,40.00,0,0,0,0.00
2013-8-24,78.3,64.6,48.0,61.9,55.1,46.9,97,74,46,0.00,40.00,8,1,8,0.00
2013-8-25,84.0,70.1,50.7,66.0,57.7,49.1,97,68,39,0.00,40.00,14,2,14,0.03
2013-8-26,82.4,73.3,69.1,73.6,68.8,65.1,95,86,73,0.00,40.00,12,2,12,0.49
2013-8-27,86.0,74.7,64.2,76.3,70.7,63.1,97,88,70,0.00,40.00,5,0,5,0.14
2013-8-28,82.9,74.4,68.9,74.8,71.0,67.3,97,90,73,0.00,40.00,7,1,7,0.08
2013-8-29,85.8,74.2,64.9,75.9,68.8,64.0,98,85,52,0.00,40.00,6,0,6,0.01
2013-8-30,83.5,71.9,64.2,74.3,68.6,63.1,97,90,69,0.00,40.00,8,1,9,0.00
2013-9-1,82.8,75.2,67.8,73.4,70.3,66.6,97,85,69,0.00,40.00,6,1,6,0.05
2013-9-2,80.4,70.9,64.2,74.1,66.5,56.1,97,86,70,0.00,40.00,13,2,13,0.17
2013-9-3,70.5,63.2,54.5,61.3,57.8,52.3,93,83,69,0.00,40.00,13,3,13,0.00
2013-9-4,80.1,67.3,54.0,64.8,58.9,51.4,95,76,48,0.00,40.00,15,3,15,0.01
2013-9-5,66.4,59.4,46.4,61.0,48.7,39.4,96,70,43,0.00,40.00,13,2,13,0.00
2013-9-6,72.9,57.6,39.4,54.0,46.9,38.3,97,71,39,0.00,40.00,10,1,10,0.00
2013-9-7,69.3,63.9,54.9,65.8,59.8,50.9,95,87,74,0.00,40.00,11,1,13,0.29
2013-9-8,69.3,63.8,48.7,66.2,55.1,47.3,95,75,48,0.00,40.00,11,1,11,0.29
2013-9-9,73.8,60.7,44.2,66.2,55.0,43.2,97,83,55,0.00,40.00,10,1,10,0.00
2013-9-10,89.6,80.2,69.6,76.6,71.6,65.8,90,76,60,0.00,40.00,17,3,17,0.07
2013-9-11,89.2,80.2,71.2,75.2,71.7,67.3,90,76,58,0.00,40.00,17,3,17,0.03
2013-9-12,76.3,70.0,63.1,69.3,65.6,56.5,94,86,71,0.00,40.00,12,2,12,0.23
2013-9-13,63.7,55.8,52.0,57.2,49.0,41.5,88,78,65,0.00,40.00,12,3,12,0.01
2013-9-14,67.8,56.0,47.5,51.4,44.1,35.4,87,66,34,0.00,40.00,8,2,10,0.00
2013-9-15,70.0,58.3,46.2,58.8,52.7,44.8,97,83,63,0.00,40.00,14,1,14,0.20
2013-9-16,59.2,51.7,38.7,54.5,47.6,37.2,96,87,61,0.00,40.00,14,1,14,0.05
2013-9-17,66.0,50.4,34.3,53.2,44.1,33.3,98,81,50,0.00,40.00,9,1,9,0.01
2013-9-18,75.4,57.6,39.7,56.5,47.9,38.7,97,74,37,0.00,40.00,8,1,9,0.00
2013-9-19,78.6,64.4,48.9,64.8,58.0,47.5,97,82,53,0.00,40.00,7,1,7,0.00
2013-9-20,81.9,71.0,56.5,70.2,64.8,55.0,97,82,64,0.00,40.00,13,2,13,0.01
2013-9-21,75.6,63.2,53.4,68.5,60.6,48.9,95,91,77,0.00,40.00,13,2,13,1.87
2013-9-22,56.7,53.6,50.9,49.8,46.0,40.3,93,76,61,0.00,40.00,11,3,15,0.01
2013-9-23,64.8,53.2,41.9,51.4,44.4,40.6,96,74,49,0.00,40.00,9,1,9,0.00
2013-9-24,69.6,50.9,37.8,54.7,44.5,36.3,98,82,37,0.00,40.00,6,0,6,0.00
2013-9-25,68.5,52.7,39.0,59.7,47.2,37.9,98,84,50,0.00,40.00,5,0,6,0.01
2013-9-26,71.1,54.9,39.4,59.2,48.9,38.1,97,82,55,0.00,40.00,8,0,8,0.00
2013-9-27,67.5,57.2,46.2,59.9,52.9,45.1,97,87,73,0.00,40.00,8,1,9,0.00
2013-9-28,73.9,60.8,49.5,62.6,55.2,47.8,97,83,63,0.00,40.00,7,1,8,0.01
2013-9-29,76.5,64.4,57.0,63.5,56.0,51.6,96,75,53,0.00,40.00,14,2,14,0.00
2013-9-30,74.3,66.2,59.4,64.2,60.8,57.7,95,83,67,0.00,40.00,11,2,11,0.01
2013-10-2,77.2,67.6,48.7,64.4,56.8,45.1,90,70,44,0.00,40.00,10,2,11,0.00
2013-10-3,71.2,57.9,41.5,60.8,51.6,40.5,97,81,51,0.00,40.00,4,0,4,0.00
2013-10-4,70.0,63.2,59.4,67.3,61.3,56.7,96,94,89,0.00,40.00,4,0,4,0.59
2013-10-5,65.5,61.6,59.2,61.7,58.9,56.5,95,91,86,0.00,40.00,6,0,8,0.17
2013-10-6,80.2,68.9,59.2,72.7,64.9,56.8,97,88,72,0.00,40.00,11,1,11,0.26
2013-10-7,75.6,59.6,49.3,65.7,53.0,42.6,95,80,53,0.00,40.00,24,4,26,0.44
2013-10-8,66.4,53.8,41.5,51.8,47.2,40.3,97,80,55,0.00,40.00,5,0,5,0.00
2013-10-9,66.9,54.4,39.4,54.7,48.2,37.8,97,81,54,0.00,40.00,6,0,6,0.01
2013-10-10,64.8,51.4,39.9,59.2,48.7,38.8,98,91,69,0.00,40.00,7,0,7,0.00
2013-10-11,66.9,52.9,41.5,60.1,49.2,40.3,98,88,62,0.00,40.00,7,0,7,0.01
2013-10-12,73.8,55.8,38.5,60.1,49.5,37.8,97,82,55,0.00,40.00,6,0,6,0.01
2013-10-13,67.6,63.7,58.6,61.3,55.7,46.0,96,77,53,0.00,40.00,11,1,11,0.38
2013-10-14,65.7,55.1,43.5,57.6,48.8,42.3,96,81,51,0.00,40.00,7,1,7,0.00
2013-10-15,70.3,57.0,40.3,58.8,51.7,39.2,97,84,64,0.00,40.00,11,1,11,0.01
2013-10-16,70.7,63.3,52.5,62.8,58.9,48.7,93,86,74,0.00,40.00,14,2,14,0.34
2013-10-17,64.8,55.6,49.5,54.1,50.9,46.9,95,85,62,0.00,40.00,9,1,10,0.40
2013-10-18,60.1,52.2,45.1,49.3,46.1,42.4,94,81,57,0.00,40.00,17,3,17,0.00
2013-10-19,55.6,49.4,43.0,51.4,46.6,40.8,95,90,80,0.00,40.00,11,1,12,0.32
2013-10-20,57.7,47.1,38.3,47.3,41.9,36.1,96,83,59,0.00,40.00,12,2,12,0.00
2013-10-21,63.9,56.0,47.5,50.7,47.1,44.4,93,73,52,0.00,40.00,18,3,18,0.24
2013-10-22,50.5,44.9,38.5,48.6,36.1,30.0,93,72,52,0.00,40.00,18,4,18,0.11
2013-10-23,48.7,41.6,36.1,41.4,36.3,30.2,92,82,61,0.00,40.00,9,1,10,0.11
2013-10-24,47.8,39.6,33.3,39.2,34.8,30.6,91,83,65,0.00,40.00,18,4,18,0.00
2013-10-25,49.5,41.5,35.1,41.4,36.9,32.9,96,84,61,0.00,40.00,13,2,13,0.00
2013-10-26,46.2,44.2,42.3,41.9,38.2,31.8,93,80,64,0.00,40.00,26,4,26,0.24
2013-10-27,48.9,41.5,36.0,41.2,36.7,32.5,94,83,67,0.00,40.00,14,2,14,0.00
2013-10-28,47.5,41.5,25.5,41.2,34.8,24.1,94,78,48,0.00,40.00,11,2,11,0.00
2013-10-29,49.5,37.8,25.0,37.8,31.7,23.5,95,80,52,0.00,40.00,6,0,6,0.01
2013-10-30,57.6,44.7,38.1,46.6,40.2,35.8,96,85,62,0.00,40.00,7,0,7,0.01
2013-10-31,68.2,58.3,40.1,60.3,53.9,38.5,96,86,70,0.00,40.00,19,-3,23,0.71
2013-11-1,64.8,56.4,49.1,59.2,49.9,43.9,92,79,67,0.00,40.00,32,8,32,0.20
2013-11-2,49.5,44.7,38.8,45.1,41.3,33.3,94,88,79,0.00,40.00,15,2,15,0.13
2013-11-3,39.6,33.5,21.4,33.4,26.0,19.8,94,75,47,0.00,40.00,12,1,12,0.00
2013-11-4,44.4,33.3,20.1,30.2,24.5,18.7,96,72,51,0.00,40.00,9,0,9,0.00
2013-11-5,60.3,49.1,34.3,40.8,35.6,25.3,71,60,45,0.00,40.00,11,2,11,0.00
2013-11-6,65.7,56.9,50.4,56.1,46.4,35.1,93,69,54,0.00,40.00,16,5,17,0.21
2013-11-7,56.3,43.7,39.0,53.8,37.2,31.5,91,78,62,0.00,40.00,15,5,16,0.07
2013-11-8,42.8,39.2,36.3,34.5,32.7,30.7,86,77,66,0.00,40.00,15,4,15,0.01
2013-11-9,52.9,44.2,30.6,46.8,35.3,26.8,89,72,51,0.00,40.00,18,3,18,0.08
2013-11-10,50.2,44.2,37.6,42.3,36.5,31.6,86,74,65,0.00,40.00,22,6,24,0.02
2013-11-11,46.6,38.5,32.5,40.6,33.2,22.1,91,82,61,0.00,40.00,20,4,20,0.15
2013-11-12,35.4,30.8,27.3,26.1,21.8,17.1,83,69,55,0.00,40.00,18,4,18,0.00
2013-11-13,41.0,33.9,23.4,31.1,25.0,18.7,89,71,48,0.00,40.00,25,5,25,0.00
2013-11-14,48.4,44.4,39.4,36.9,31.7,28.2,74,61,47,0.00,40.00,24,8,25,0.00
2013-11-15,53.2,46.6,36.5,38.1,34.7,30.9,92,64,50,0.00,40.00,20,4,20,0.00
2013-11-16,60.1,51.1,40.6,45.5,41.1,35.1,83,69,56,0.00,40.00,13,2,13,0.00
2013-11-17,65.1,59.3,53.8,57.2,52.6,45.3,90,79,68,0.00,40.00,24,5,24,0.28
2013-11-18,57.0,45.5,37.0,46.6,36.3,29.1,81,70,59,0.00,40.00,32,10,32,0.00
2013-11-19,39.0,35.3,24.4,29.8,26.4,21.4,91,70,58,0.00,40.00,19,4,19,0.00
2013-11-20,45.0,31.4,18.5,30.0,23.7,16.3,95,75,48,0.00,40.00,8,0,9,0.00
2013-11-21,45.7,40.4,27.1,39.7,31.1,20.3,92,71,46,0.00,40.00,12,2,12,0.13
2013-11-22,47.7,42.7,33.1,45.7,40.0,26.8,96,90,76,0.00,40.00,18,2,18,0.32
2013-11-23,34.0,28.8,19.4,28.2,20.8,9.0,86,72,54,0.00,40.00,26,7,26,0.00
2013-11-24,25.9,21.6,17.2,17.4,13.7,9.7,80,71,52,0.00,40.00,16,5,19,0.00
2013-11-25,37.0,29.6,18.1,31.5,20.1,11.8,93,68,51,0.00,40.00,23,5,25,0.00
2013-11-26,35.4,33.4,32.0,33.1,31.2,29.7,95,92,86,0.00,40.00,11,1,12,0.07
2013-11-27,34.2,31.2,24.6,32.0,26.2,17.8,96,82,64,0.00,40.00,18,4,18,0.03
2013-11-28,28.6,24.3,19.6,22.1,17.8,15.1,92,76,59,0.00,40.00,17,2,17,0.03
2013-11-29,36.3,24.1,12.7,23.2,18.0,10.0,95,79,49,0.00,40.00,9,0,10,0.12
2013-11-30,37.6,29.0,17.2,29.5,21.0,13.5,87,72,60,0.00,40.00,14,2,14,0.02
2013-12-1,41.0,38.2,35.2,36.1,33.2,29.1,89,82,72,0.00,40.00,7,1,8,0.10
2013-12-2,37.6,34.5,28.2,34.3,32.2,25.7,95,91,87,0.00,40.00,6,0,6,0.00
2013-12-3,40.8,31.0,19.8,32.0,26.7,18.3,96,85,64,0.00,40.00,7,0,7,0.00
2013-12-4,46.6,39.2,34.0,42.3,35.9,30.4,93,88,79,0.00,40.00,6,0,6,0.04
2013-12-5,61.5,52.0,39.4,54.3,44.3,30.7,85,75,54,0.00,40.00,21,6,26,0.00
2013-12-6,39.7,34.4,30.6,31.1,26.2,22.5,77,72,66,0.00,40.00,13,3,13,0.00
2013-12-7,30.7,27.5,21.9,23.5,18.9,13.5,81,70,61,0.00,40.00,15,5,16,0.00
2013-12-8,29.5,24.7,16.2,23.4,16.6,12.7,88,72,52,0.00,40.00,8,1,10,0.00
2013-12-9,38.7,33.1,28.2,36.0,29.7,22.8,95,87,78,0.00,40.00,24,5,24,0.02
2013-12-10,26.1,23.2,21.7,20.8,13.6,9.5,89,67,53,0.00,40.00,22,7,22,0.00
2013-12-11,26.4,22.7,17.4,19.8,13.7,9.0,85,68,58,0.00,40.00,22,7,23,0.00
2013-12-12,21.6,17.1,11.5,15.8,8.9,4.8,84,70,55,0.00,40.00,20,7,20,0.00
2013-12-13,26.1,20.5,15.8,20.8,14.4,10.8,89,77,67,0.00,40.00,19,4,19,0.00
2013-12-14,20.8,17.2,15.1,18.9,13.8,8.8,92,87,75,0.00,40.00,12,1,14,0.00
2013-12-15,25.9,21.1,16.7,21.9,17.1,10.2,94,84,71,0.00,40.00,18,3,18,0.00
2013-12-16,23.7,13.9,2.1,13.6,7.6,-1.1,93,76,59,0.00,40.00,13,2,14,0.00
2013-12-17,27.9,20.4,8.8,25.3,16.8,5.7,93,86,72,0.00,40.00,10,1,12,0.00
2013-12-18,33.4,28.4,22.8,25.3,22.9,19.9,91,80,70,0.00,40.00,17,4,19,0.00
2013-12-19,41.2,36.2,30.7,33.1,29.4,21.9,92,76,67,0.00,40.00,16,4,16,0.11
2013-12-20,37.0,35.3,33.6,35.8,33.9,31.5,96,95,92,0.00,40.00,3,0,3,0.54
2013-12-21,36.0,34.6,31.6,35.2,33.6,30.4,97,96,96,0.00,40.00,16,0,16,0.73
2013-12-22,38.1,34.6,31.6,36.3,33.1,30.4,96,94,89,0.00,40.00,12,1,16,1.30
2013-12-23,38.1,32.3,24.6,35.8,29.4,19.6,95,89,76,0.00,40.00,11,2,14,0.00
2013-12-24,26.6,20.2,8.1,22.8,16.0,3.9,93,84,72,0.00,40.00,12,2,12,0.00
2013-12-25,23.9,15.0,-1.8,19.6,10.1,-4.9,93,81,68,0.00,40.00,7,0,7,0.00
2013-12-26,33.1,27.6,19.6,27.5,22.2,13.3,94,80,69,0.00,40.00,15,3,15,0.00
2013-12-27,38.5,28.9,19.2,32.7,24.6,13.3,95,84,70,0.00,40.00,16,3,16,0.00
2013-12-28,43.3,39.4,35.6,35.6,33.3,31.5,87,79,71,0.00,40.00,25,5,25,0.07
2013-12-29,45.9,40.6,26.4,37.2,31.8,19.4,89,71,52,0.00,40.00,19,4,21,0.07
2013-12-30,26.4,20.3,18.0,20.1,12.2,8.4,78,71,60,0.00,40.00,19,5,19,0.00
2013-12-31,22.3,18.4,13.8,18.1,11.7,5.2,90,75,62,0.00,40.00,25,5,27,0.00
2014-1-1,23.2,17.0,13.8,16.2,11.0,6.1,90,77,58,0.00,40.00,12,2,14,0.00
2014-1-2,16.0,12.4,7.2,13.6,9.7,4.3,90,89,87,0.00,40.00,14,2,14,0.00